Time;durP1;ratioP1;P1;durP2;ratioP2;P2;SDS_P1;SDS_P2;PMS_P1;PMS_P2;Temp;Humidity;BMP_temperature;BMP_pressure;BME280_temperature;BME280_humidity;BME280_pressure;Samples;Min_cycle;Max_cycle;Signal;HPM_P1;HPM_P2
2023/11/13 00:02:05;;;;;;;5.32;1.23;;;9.30;88.30;;;;;;4994467;28;20034;-80
2023/11/13 00:04:31;;;;;;;3.88;1.52;;;9.30;88.50;;;;;;4994418;28;20022;-80
2023/11/13 00:06:56;;;;;;;5.55;1.27;;;9.30;88.70;;;;;;4994116;28;20383;-79
2023/11/13 00:09:22;;;;;;;4.20;1.08;;;9.30;88.80;;;;;;4994331;28;20475;-77
2023/11/13 00:11:48;;;;;;;4.90;1.15;;;9.30;88.90;;;;;;4994128;28;20423;-76
2023/11/13 00:14:14;;;;;;;2.35;0.90;;;9.30;88.90;;;;;;4994110;28;20033;-77
2023/11/13 00:16:40;;;;;;;6.95;1.50;;;9.30;89.10;;;;;;4994023;28;20030;-77
2023/11/13 00:19:05;;;;;;;2.38;0.88;;;9.30;89.30;;;;;;4994223;28;20494;-78
2023/11/13 00:21:31;;;;;;;5.85;1.20;;;9.30;89.30;;;;;;4994036;28;20034;-77
2023/11/13 00:23:57;;;;;;;4.93;1.42;;;9.30;89.60;;;;;;4993920;28;20379;-77
2023/11/13 00:26:24;;;;;;;5.00;1.45;;;9.20;89.50;;;;;;4993841;28;20426;-77
2023/11/13 00:28:50;;;;;;;3.70;1.33;;;9.20;89.60;;;;;;4994000;28;20058;-77
2023/11/13 00:31:15;;;;;;;5.32;1.40;;;9.20;89.90;;;;;;4993893;28;20435;-77
2023/11/13 00:33:41;;;;;;;5.63;1.52;;;9.10;90.30;;;;;;4992549;28;20065;-77
2023/11/13 00:36:07;;;;;;;5.90;1.60;;;9.10;90.60;;;;;;4993009;28;20494;-76
2023/11/13 00:38:33;;;;;;;7.13;1.08;;;9.00;90.90;;;;;;4993813;28;20364;-77
2023/11/13 00:40:58;;;;;;;5.32;1.30;;;9.00;90.80;;;;;;4993507;28;20479;-76
2023/11/13 00:43:25;;;;;;;6.40;1.27;;;8.90;91.10;;;;;;4995975;28;20573;-80
2023/11/13 00:45:50;;;;;;;6.68;1.42;;;8.90;91.40;;;;;;5004569;28;20026;-79
2023/11/13 00:48:17;;;;;;;7.18;1.55;;;8.90;91.60;;;;;;4998595;28;20038;-78
2023/11/13 00:50:42;;;;;;;3.58;1.35;;;8.90;91.80;;;;;;4993449;28;20626;-78
2023/11/13 00:53:08;;;;;;;4.57;1.13;;;8.80;92.10;;;;;;4993762;28;20101;-78
2023/11/13 00:55:34;;;;;;;4.68;1.35;;;8.90;92.40;;;;;;4993554;28;20098;-79
2023/11/13 00:57:59;;;;;;;5.40;1.30;;;8.90;92.70;;;;;;4993492;28;20077;-79
2023/11/13 01:00:25;;;;;;;5.15;1.23;;;8.90;92.60;;;;;;4993630;28;20021;-80
2023/11/13 01:02:51;;;;;;;3.50;1.10;;;8.90;93.00;;;;;;4993500;28;20379;-79
2023/11/13 01:05:16;;;;;;;2.42;0.47;;;9.00;93.20;;;;;;4993447;28;20041;-76
2023/11/13 01:07:42;;;;;;;0.85;0.20;;;9.10;93.60;;;;;;4993325;28;20057;-77
2023/11/13 01:10:08;;;;;;;0.47;0.13;;;9.20;93.70;;;;;;4993423;28;20512;-75
2023/11/13 01:12:36;;;;;;;0.60;0.20;;;9.40;93.20;;;;;;4993373;28;20069;-79
2023/11/13 01:15:04;;;;;;;0.65;0.30;;;9.70;92.20;;;;;;4993478;28;20034;-79
2023/11/13 01:17:30;;;;;;;0.30;0.10;;;9.90;91.20;;;;;;4993383;28;20038;-77
2023/11/13 01:19:56;;;;;;;0.52;0.30;;;10.00;90.20;;;;;;4993336;28;20015;-81
2023/11/13 01:22:21;;;;;;;0.20;0.20;;;10.20;89.80;;;;;;4993436;28;20028;-76
2023/11/13 01:24:47;;;;;;;0.52;0.10;;;10.30;89.30;;;;;;4993409;28;20166;-79
2023/11/13 01:27:13;;;;;;;0.50;0.13;;;10.40;88.60;;;;;;4993477;28;20034;-75
2023/11/13 01:29:38;;;;;;;0.55;0.30;;;10.50;88.30;;;;;;4993408;28;20405;-78
2023/11/13 01:32:04;;;;;;;0.75;0.20;;;10.60;86.90;;;;;;4993402;28;20105;-78
2023/11/13 01:34:29;;;;;;;0.40;0.30;;;10.60;86.90;;;;;;4993375;28;20030;-75
2023/11/13 01:36:55;;;;;;;0.50;0.35;;;10.70;86.40;;;;;;4993156;28;20035;-75
2023/11/13 01:39:21;;;;;;;1.30;0.30;;;10.80;86.30;;;;;;4993277;28;20430;-76
2023/11/13 01:41:46;;;;;;;2.30;0.50;;;10.80;85.60;;;;;;4993181;28;20030;-75
2023/11/13 01:44:12;;;;;;;3.42;0.52;;;10.90;85.50;;;;;;4993042;28;20535;-78
2023/11/13 01:46:37;;;;;;;1.13;0.50;;;10.90;84.80;;;;;;4994627;28;20030;-78
2023/11/13 01:49:05;;;;;;;2.33;0.50;;;10.90;84.50;;;;;;4996972;28;20026;-78
2023/11/13 01:51:31;;;;;;;1.45;0.60;;;11.00;84.00;;;;;;4995480;28;20049;-76
2023/11/13 01:53:57;;;;;;;4.20;0.73;;;11.00;84.20;;;;;;4997088;28;20468;-75
2023/11/13 01:56:25;;;;;;;4.63;1.10;;;11.00;84.20;;;;;;4996844;28;20026;-75
2023/11/13 01:58:55;;;;;;;4.70;1.00;;;11.00;83.80;;;;;;4996703;28;20034;-75
2023/11/13 02:01:22;;;;;;;5.57;1.20;;;10.90;83.70;;;;;;4996777;28;20515;-77
2023/11/13 02:03:49;;;;;;;4.88;1.52;;;10.90;84.20;;;;;;4996602;28;20057;-75
2023/11/13 02:06:18;;;;;;;6.22;1.67;;;10.90;84.20;;;;;;4996690;28;20030;-76
2023/11/13 02:08:44;;;;;;;6.00;1.55;;;10.90;83.70;;;;;;4996531;28;20072;-77
2023/11/13 02:11:10;;;;;;;7.40;1.70;;;11.00;83.70;;;;;;4996622;28;20027;-79
2023/11/13 02:13:38;;;;;;;9.00;1.65;;;11.00;83.20;;;;;;4996516;28;20058;-79
2023/11/13 02:16:06;;;;;;;6.28;1.85;;;11.00;83.60;;;;;;4996464;28;20127;-78
2023/11/13 02:18:36;;;;;;;8.38;1.95;;;11.00;83.50;;;;;;4996440;28;20101;-78
2023/11/13 02:21:01;;;;;;;10.25;2.67;;;11.00;83.80;;;;;;4996544;28;20026;-81
2023/11/13 02:23:27;;;;;;;9.93;2.10;;;11.00;84.20;;;;;;4996421;28;20033;-82
2023/11/13 02:25:57;;;;;;;12.70;2.70;;;10.90;84.50;;;;;;4996530;28;20026;-82
2023/11/13 02:28:23;;;;;;;10.23;1.98;;;10.90;83.90;;;;;;4995436;28;20042;-82
2023/11/13 02:30:49;;;;;;;10.52;2.38;;;11.00;84.20;;;;;;4996519;28;20033;-82
2023/11/13 02:33:15;;;;;;;10.80;2.10;;;10.90;84.50;;;;;;4995201;28;20030;-82
2023/11/13 02:35:41;;;;;;;9.98;2.35;;;10.90;83.90;;;;;;4996409;28;20022;-80
2023/11/13 02:38:07;;;;;;;11.27;2.65;;;11.00;83.90;;;;;;4996127;28;20053;-76
2023/11/13 02:40:33;;;;;;;7.32;2.33;;;10.90;83.80;;;;;;4996384;28;20058;-77
2023/11/13 02:42:59;;;;;;;12.48;2.65;;;11.00;83.50;;;;;;4995677;28;20038;-81
2023/11/13 02:45:26;;;;;;;11.27;2.08;;;11.10;83.20;;;;;;4995886;28;20101;-77
2023/11/13 02:47:52;;;;;;;12.30;2.03;;;11.00;83.30;;;;;;4995859;28;20030;-80
2023/11/13 02:50:18;;;;;;;12.35;2.92;;;11.10;82.80;;;;;;4995782;28;20475;-76
2023/11/13 02:52:44;;;;;;;14.13;2.78;;;11.10;82.30;;;;;;4994751;28;20125;-78
2023/11/13 02:55:10;;;;;;;12.02;2.80;;;11.10;82.50;;;;;;4994425;28;20019;-79
2023/11/13 02:57:36;;;;;;;19.40;3.70;;;11.10;82.90;;;;;;4995213;28;20023;-79
2023/11/13 03:00:09;;;;;;;15.55;2.95;;;11.10;82.30;;;;;;4995491;28;20019;-78
2023/11/13 03:02:35;;;;;;;9.23;2.53;;;11.10;82.00;;;;;;4995614;28;20034;-80
2023/11/13 03:05:01;;;;;;;13.77;3.03;;;11.10;81.70;;;;;;4995585;28;20087;-78
2023/11/13 03:07:27;;;;;;;13.55;2.42;;;11.20;81.20;;;;;;4995515;28;20069;-77
2023/11/13 03:09:55;;;;;;;15.90;3.00;;;11.20;80.80;;;;;;4995442;28;20037;-78
2023/11/13 03:12:22;;;;;;;11.75;2.78;;;11.30;80.80;;;;;;4995536;28;20026;-78
2023/11/13 03:14:48;;;;;;;11.98;3.45;;;11.30;80.70;;;;;;4995434;28;20026;-78
2023/11/13 03:17:14;;;;;;;16.92;3.17;;;11.30;80.50;;;;;;4995297;28;20403;-78
2023/11/13 03:19:40;;;;;;;18.35;3.35;;;11.20;80.70;;;;;;4995315;28;20027;-79
2023/11/13 03:22:06;;;;;;;12.15;2.92;;;11.20;80.50;;;;;;4995238;28;20118;-79
2023/11/13 03:24:32;;;;;;;19.20;4.00;;;11.20;80.80;;;;;;4995130;28;20033;-79
2023/11/13 03:26:57;;;;;;;19.67;4.13;;;11.30;80.00;;;;;;4995040;28;20038;-78
2023/11/13 03:29:25;;;;;;;11.52;3.20;;;11.30;80.50;;;;;;4995121;28;20062;-78
2023/11/13 03:31:50;;;;;;;12.75;3.45;;;11.30;80.40;;;;;;4995126;28;20029;-78
2023/11/13 03:34:17;;;;;;;15.68;3.80;;;11.30;81.10;;;;;;4993773;28;20431;-79
2023/11/13 03:36:43;;;;;;;17.30;3.80;;;11.20;81.60;;;;;;4995097;28;20490;-79
2023/11/13 03:39:09;;;;;;;16.98;3.88;;;11.20;82.10;;;;;;4995040;28;20038;-79
2023/11/13 03:41:34;;;;;;;20.33;3.63;;;11.10;83.10;;;;;;4994845;28;20037;-77
2023/11/13 03:44:00;;;;;;;12.35;3.30;;;10.90;83.10;;;;;;4994841;28;20040;-78
2023/11/13 03:46:26;;;;;;;19.20;3.33;;;11.00;83.70;;;;;;4994754;28;20019;-78
2023/11/13 03:48:52;;;;;;;18.10;3.50;;;10.90;84.50;;;;;;4994741;28;20042;-77
2023/11/13 03:51:17;;;;;;;14.30;3.30;;;10.90;82.90;;;;;;4994705;28;20101;-76
2023/11/13 03:53:43;;;;;;;15.98;3.38;;;10.90;83.30;;;;;;4993381;28;20094;-79
2023/11/13 03:56:09;;;;;;;17.17;3.70;;;10.90;82.70;;;;;;4993614;28;20026;-79
2023/11/13 03:58:35;;;;;;;16.65;3.33;;;11.00;82.80;;;;;;4993313;28;20137;-78
2023/11/13 04:01:00;;;;;;;15.25;3.53;;;10.90;82.70;;;;;;4993509;28;20027;-78
2023/11/13 04:03:26;;;;;;;16.52;3.35;;;10.90;82.70;;;;;;4993528;28;20022;-78
2023/11/13 04:05:51;;;;;;;15.30;3.40;;;11.00;82.30;;;;;;4992888;28;20030;-77
2023/11/13 04:08:17;;;;;;;16.60;3.45;;;11.10;81.40;;;;;;4994270;28;20046;-78
2023/11/13 04:10:42;;;;;;;15.77;3.85;;;11.00;81.30;;;;;;4993065;28;20023;-79
2023/11/13 04:13:08;;;;;;;14.55;3.95;;;11.00;81.10;;;;;;4994128;28;20073;-79
2023/11/13 04:15:33;;;;;;;12.88;3.60;;;11.10;80.50;;;;;;4992969;28;20030;-80
2023/11/13 04:17:59;;;;;;;15.02;4.13;;;11.10;80.20;;;;;;4992976;28;20124;-79
2023/11/13 04:20:24;;;;;;;16.60;4.10;;;11.10;80.50;;;;;;4993000;28;20101;-79
2023/11/13 04:22:50;;;;;;;16.90;3.75;;;11.10;80.30;;;;;;4992572;28;20027;-77
2023/11/13 04:25:16;;;;;;;17.48;4.03;;;11.10;80.20;;;;;;4993011;28;20076;-77
2023/11/13 04:27:42;;;;;;;18.58;3.83;;;11.10;80.40;;;;;;4992713;28;20033;-79
2023/11/13 04:30:08;;;;;;;16.15;3.22;;;11.10;80.10;;;;;;4993934;28;20077;-78
2023/11/13 04:32:33;;;;;;;17.48;3.95;;;11.10;79.60;;;;;;4993023;28;20445;-77
2023/11/13 04:34:59;;;;;;;18.23;4.68;;;11.10;79.70;;;;;;4992572;28;20022;-78
2023/11/13 04:37:26;;;;;;;19.10;4.97;;;11.10;79.80;;;;;;4976963;28;20070;-78
2023/11/13 04:39:51;;;;;;;15.15;4.35;;;11.10;79.90;;;;;;4993960;28;20073;-75
2023/11/13 04:42:17;;;;;;;21.55;4.70;;;11.10;80.00;;;;;;4992753;28;20434;-77
2023/11/13 04:44:43;;;;;;;21.83;4.18;;;11.00;79.80;;;;;;4993622;28;20041;-76
2023/11/13 04:47:08;;;;;;;13.30;4.05;;;11.00;79.90;;;;;;4993392;28;20053;-76
2023/11/13 04:49:35;;;;;;;14.07;3.70;;;11.10;79.20;;;;;;4992380;28;20049;-77
2023/11/13 04:52:01;;;;;;;23.77;4.70;;;11.10;78.90;;;;;;4993877;28;20033;-76
2023/11/13 04:54:27;;;;;;;21.42;4.22;;;11.10;78.60;;;;;;4996345;28;20435;-78
2023/11/13 04:56:55;;;;;;;21.92;5.07;;;11.20;78.30;;;;;;4995827;28;20042;-80
2023/11/13 04:59:21;;;;;;;21.48;5.50;;;11.10;78.80;;;;;;4993673;28;20056;-78
2023/11/13 05:01:46;;;;;;;21.75;5.07;;;11.20;78.30;;;;;;4992167;28;20069;-79
2023/11/13 05:04:12;;;;;;;21.00;4.93;;;11.10;79.00;;;;;;4993592;28;20022;-78
2023/11/13 05:06:38;;;;;;;16.92;4.07;;;11.10;77.20;;;;;;4993412;28;20026;-76
2023/11/13 05:09:04;;;;;;;22.48;4.93;;;11.10;77.10;;;;;;4992495;28;20030;-75
2023/11/13 05:11:30;;;;;;;21.02;4.22;;;11.10;77.40;;;;;;4993332;28;20105;-80
2023/11/13 05:13:56;;;;;;;19.75;5.32;;;11.20;77.00;;;;;;4992483;28;20034;-78
2023/11/13 05:16:27;;;;;;;15.63;4.57;;;11.10;77.20;;;;;;4992236;28;20022;-80
2023/11/13 05:18:53;;;;;;;22.00;3.97;;;11.10;77.20;;;;;;4992115;28;20415;-79
2023/11/13 05:21:20;;;;;;;15.00;4.65;;;11.20;76.50;;;;;;4994451;28;20048;-79
2023/11/13 05:23:47;;;;;;;18.88;4.60;;;11.20;76.50;;;;;;4996353;28;20022;-79
2023/11/13 05:26:13;;;;;;;15.35;3.42;;;11.20;76.50;;;;;;4995956;28;20038;-80
2023/11/13 05:28:39;;;;;;;18.38;4.00;;;11.10;75.70;;;;;;4997314;28;20113;-80
2023/11/13 05:31:04;;;;;;;16.85;3.55;;;11.10;74.70;;;;;;4996098;28;20045;-79
2023/11/13 05:33:33;;;;;;;15.95;4.25;;;11.10;75.30;;;;;;4996110;28;20031;-79
2023/11/13 05:35:58;;;;;;;12.45;3.33;;;11.10;75.30;;;;;;4996099;28;20030;-78
2023/11/13 05:38:24;;;;;;;12.10;2.92;;;11.00;74.50;;;;;;4995505;28;20027;-80
2023/11/13 05:40:49;;;;;;;10.88;2.88;;;11.00;74.10;;;;;;4995830;28;20038;-77
2023/11/13 05:43:15;;;;;;;7.90;2.05;;;11.00;74.40;;;;;;4997042;28;20027;-81
2023/11/13 05:45:41;;;;;;;13.43;3.28;;;10.90;74.30;;;;;;4996298;28;20080;-78
2023/11/13 05:48:07;;;;;;;7.57;1.90;;;10.90;75.80;;;;;;4996865;28;20484;-77
2023/11/13 05:50:33;;;;;;;6.15;1.60;;;10.80;75.40;;;;;;4996909;28;20117;-78
2023/11/13 05:52:59;;;;;;;6.40;1.63;;;10.60;76.20;;;;;;4996868;28;20033;-78
2023/11/13 05:55:25;;;;;;;6.68;2.13;;;10.60;76.00;;;;;;4995854;28;20109;-78
2023/11/13 05:57:51;;;;;;;8.63;1.83;;;10.50;76.70;;;;;;4995921;28;20121;-79
2023/11/13 06:00:18;;;;;;;8.07;2.28;;;10.50;77.70;;;;;;4995735;28;20085;-77
2023/11/13 06:02:48;;;;;;;7.45;1.58;;;10.50;78.90;;;;;;4995725;28;20026;-79
2023/11/13 06:05:14;;;;;;;7.85;2.00;;;10.40;79.20;;;;;;4995781;28;20114;-77
2023/11/13 06:07:42;;;;;;;8.30;2.40;;;10.20;80.40;;;;;;4995677;28;20042;-81
2023/11/13 06:10:10;;;;;;;9.10;2.70;;;10.10;80.70;;;;;;4979612;28;20034;-79
2023/11/13 06:12:39;;;;;;;11.70;2.22;;;10.10;81.30;;;;;;4995633;28;20045;-78
2023/11/13 06:15:10;;;;;;;5.07;1.60;;;10.10;81.70;;;;;;4995715;28;20506;-77
2023/11/13 06:17:37;;;;;;;6.20;1.85;;;9.90;81.90;;;;;;4995607;28;20463;-76
2023/11/13 06:20:02;;;;;;;3.55;1.33;;;10.00;82.50;;;;;;4995506;28;20018;-76
2023/11/13 06:22:28;;;;;;;8.05;1.73;;;9.90;82.60;;;;;;4995452;28;20053;-76
2023/11/13 06:24:54;;;;;;;6.13;1.65;;;9.90;82.80;;;;;;4995611;28;20109;-80
2023/11/13 06:27:20;;;;;;;5.82;1.85;;;9.80;83.20;;;;;;4995775;28;20034;-79
2023/11/13 06:29:45;;;;;;;10.00;1.85;;;9.80;84.00;;;;;;4995006;28;20547;-81
2023/11/13 06:32:11;;;;;;;9.05;1.75;;;9.80;83.80;;;;;;4995022;28;20122;-77
2023/11/13 06:34:36;;;;;;;7.30;2.00;;;9.70;84.10;;;;;;4994673;28;20041;-79
2023/11/13 06:37:02;;;;;;;6.18;1.77;;;9.70;84.30;;;;;;4995228;28;20068;-78
2023/11/13 06:39:29;;;;;;;6.63;1.92;;;9.70;84.60;;;;;;4994953;28;20038;-79
2023/11/13 06:41:55;;;;;;;4.75;1.80;;;9.80;84.60;;;;;;4995049;28;20034;-79
2023/11/13 06:44:20;;;;;;;11.63;3.33;;;9.80;84.90;;;;;;4994442;28;20026;-80
2023/11/13 06:46:46;;;;;;;9.25;2.97;;;9.80;84.90;;;;;;4994657;28;20054;-79
2023/11/13 06:49:14;;;;;;;4.63;1.95;;;9.80;85.20;;;;;;4997362;28;20030;-80
2023/11/13 06:51:40;;;;;;;7.38;1.98;;;9.80;85.60;;;;;;4995684;28;20057;-81
2023/11/13 06:54:07;;;;;;;7.75;1.73;;;9.80;85.80;;;;;;4984272;28;20399;-82
2023/11/13 06:56:33;;;;;;;6.35;2.65;;;9.80;85.90;;;;;;4995450;28;20029;-78
2023/11/13 06:59:01;;;;;;;8.18;2.58;;;9.80;86.60;;;;;;4994399;28;20034;-79
2023/11/13 07:01:27;;;;;;;6.30;2.10;;;9.90;86.80;;;;;;4994898;28;20118;-79
2023/11/13 07:03:52;;;;;;;6.15;2.47;;;9.80;86.90;;;;;;4994360;28;20054;-84
2023/11/13 07:06:18;;;;;;;6.25;2.60;;;9.80;87.40;;;;;;4994859;28;20117;-78
2023/11/13 07:08:44;;;;;;;9.35;2.53;;;9.70;87.60;;;;;;4995285;28;20120;-79
2023/11/13 07:11:14;;;;;;;6.10;2.10;;;9.70;88.10;;;;;;4994357;28;20026;-81
2023/11/13 07:13:41;;;;;;;7.10;2.78;;;9.70;88.50;;;;;;4995648;28;20118;-77
2023/11/13 07:16:07;;;;;;;6.32;2.50;;;9.60;88.60;;;;;;4994604;28;20018;-78
2023/11/13 07:18:33;;;;;;;10.10;2.50;;;9.60;88.90;;;;;;4994214;28;20022;-78
2023/11/13 07:21:01;;;;;;;8.02;2.30;;;9.60;89.10;;;;;;4994724;28;20022;-77
2023/11/13 07:23:28;;;;;;;9.00;2.53;;;9.70;89.30;;;;;;4978247;28;20027;-77
2023/11/13 07:25:54;;;;;;;12.20;2.75;;;9.70;89.40;;;;;;4994382;28;20030;-77
2023/11/13 07:28:20;;;;;;;12.95;2.35;;;9.70;89.70;;;;;;4994294;28;20034;-77
2023/11/13 07:30:46;;;;;;;9.50;2.17;;;10.00;90.00;;;;;;4994492;28;20029;-75
2023/11/13 07:33:12;;;;;;;8.00;2.10;;;10.20;89.40;;;;;;4994939;28;20467;-80
2023/11/13 07:35:39;;;;;;;2.58;0.68;;;10.50;88.30;;;;;;4994302;28;20026;-79
2023/11/13 07:38:07;;;;;;;1.73;0.50;;;10.60;87.00;;;;;;4993761;28;20031;-75
2023/11/13 07:40:33;;;;;;;2.25;0.60;;;10.60;86.60;;;;;;4994942;28;20045;-76
2023/11/13 07:42:59;;;;;;;1.90;0.30;;;10.80;86.70;;;;;;4995117;28;20038;-77
2023/11/13 07:45:25;;;;;;;0.57;0.40;;;11.00;86.60;;;;;;4993372;28;20029;-76
2023/11/13 07:47:51;;;;;;;0.70;0.40;;;11.20;86.80;;;;;;4993306;28;20030;-76
2023/11/13 07:50:16;;;;;;;0.70;0.30;;;11.30;86.50;;;;;;4993541;28;20073;-76
2023/11/13 07:52:44;;;;;;;0.38;0.30;;;11.40;86.10;;;;;;4993595;28;20034;-76
2023/11/13 07:55:12;;;;;;;0.40;0.40;;;11.50;85.80;;;;;;4993638;28;20387;-76
2023/11/13 07:57:38;;;;;;;0.47;0.30;;;11.70;85.70;;;;;;4993599;28;20049;-76
2023/11/13 08:00:11;;;;;;;2.00;0.52;;;11.70;85.60;;;;;;4977456;28;20037;-76
2023/11/13 08:02:40;;;;;;;2.60;0.52;;;11.70;85.00;;;;;;4993420;28;20026;-76
2023/11/13 08:05:06;;;;;;;1.40;0.50;;;11.80;85.00;;;;;;4993305;28;20053;-76
2023/11/13 08:07:31;;;;;;;1.13;0.50;;;11.90;84.40;;;;;;4993386;28;20073;-76
2023/11/13 08:10:01;;;;;;;2.20;0.60;;;12.00;84.10;;;;;;4993369;28;20498;-76
2023/11/13 08:12:27;;;;;;;1.70;1.00;;;12.00;84.10;;;;;;4993661;28;20125;-76
2023/11/13 08:14:53;;;;;;;1.33;0.50;;;11.90;84.60;;;;;;4999388;28;20141;-76
2023/11/13 08:17:20;;;;;;;2.50;0.68;;;11.90;84.60;;;;;;4993111;28;20022;-76
2023/11/13 08:19:46;;;;;;;2.28;0.85;;;12.00;83.70;;;;;;4993199;28;20029;-75
2023/11/13 08:22:11;;;;;;;4.50;1.02;;;12.10;83.20;;;;;;4994135;28;20457;-74
2023/11/13 08:24:37;;;;;;;2.60;0.90;;;12.10;82.70;;;;;;4994331;28;20034;-76
2023/11/13 08:27:03;;;;;;;4.72;1.20;;;12.20;82.50;;;;;;4994267;28;20019;-76
2023/11/13 08:29:29;;;;;;;3.55;1.10;;;12.40;82.00;;;;;;4993065;28;20118;-77
2023/11/13 08:31:55;;;;;;;4.70;1.42;;;12.50;81.20;;;;;;4993022;28;20054;-77
2023/11/13 08:34:21;;;;;;;3.40;1.20;;;12.50;81.50;;;;;;4993136;28;20031;-76
2023/11/13 08:36:47;;;;;;;3.33;1.20;;;12.60;80.50;;;;;;4994022;28;20022;-76
2023/11/13 08:39:17;;;;;;;5.18;1.35;;;12.50;80.70;;;;;;4993186;28;20038;-76
2023/11/13 08:41:43;;;;;;;5.95;1.45;;;12.60;80.40;;;;;;4992853;28;20060;-76
2023/11/13 08:44:08;;;;;;;7.85;1.85;;;12.70;80.40;;;;;;4993069;28;20038;-76
2023/11/13 08:46:35;;;;;;;9.77;2.00;;;12.70;80.30;;;;;;4993940;28;20030;-76
2023/11/13 08:49:00;;;;;;;7.57;1.73;;;12.80;80.00;;;;;;4993899;28;20421;-76
2023/11/13 08:51:27;;;;;;;6.30;1.90;;;12.80;80.00;;;;;;4992458;28;20042;-75
2023/11/13 08:53:53;;;;;;;6.40;1.77;;;12.90;79.10;;;;;;4992607;28;20038;-74
2023/11/13 08:56:19;;;;;;;4.88;1.85;;;12.90;79.10;;;;;;4993124;28;20022;-75
2023/11/13 08:58:45;;;;;;;5.90;1.70;;;13.00;78.50;;;;;;4992411;28;20455;-74
2023/11/13 09:01:11;;;;;;;7.00;2.30;;;13.00;78.80;;;;;;4992489;28;20511;-74
2023/11/13 09:03:39;;;;;;;5.65;1.90;;;13.00;78.00;;;;;;4994300;28;20176;-76
2023/11/13 09:06:12;;;;;;;10.88;3.28;;;13.00;78.40;;;;;;4994555;28;20026;-74
2023/11/13 09:08:42;;;;;;;7.70;1.90;;;13.10;78.40;;;;;;4997214;28;20084;-74
2023/11/13 09:11:08;;;;;;;7.00;1.90;;;13.10;78.40;;;;;;4992369;28;20026;-75
2023/11/13 09:13:33;;;;;;;8.95;2.45;;;13.10;77.90;;;;;;4992402;28;20036;-75
2023/11/13 09:16:02;;;;;;;8.63;3.30;;;13.20;77.50;;;;;;4992434;28;20463;-76
2023/11/13 09:18:29;;;;;;;8.90;2.50;;;13.20;77.80;;;;;;4992730;28;20026;-76
2023/11/13 09:20:54;;;;;;;9.82;3.08;;;13.20;77.10;;;;;;4992607;28;20496;-76
2023/11/13 09:23:21;;;;;;;6.82;1.92;;;13.20;77.90;;;;;;4992041;28;20549;-77
2023/11/13 09:25:46;;;;;;;10.98;2.40;;;13.20;78.90;;;;;;4992637;28;20018;-76
2023/11/13 09:28:12;;;;;;;11.73;2.97;;;13.10;78.60;;;;;;4992131;28;20496;-77
2023/11/13 09:30:39;;;;;;;11.95;2.58;;;13.20;78.20;;;;;;4992600;28;20080;-77
2023/11/13 09:33:08;;;;;;;8.05;2.55;;;13.20;78.00;;;;;;4993520;28;20072;-76
2023/11/13 09:35:34;;;;;;;10.85;2.90;;;13.30;77.80;;;;;;4992282;28;20022;-76
2023/11/13 09:38:01;;;;;;;8.95;2.47;;;13.30;77.70;;;;;;4996831;28;20034;-77
2023/11/13 09:40:29;;;;;;;10.35;2.97;;;13.30;78.80;;;;;;4992286;28;20072;-76
2023/11/13 09:43:06;;;;;;;11.55;3.05;;;13.30;77.80;;;;;;4992425;28;20418;-76
2023/11/13 09:45:32;;;;;;;10.27;2.92;;;13.40;77.70;;;;;;4992825;28;20022;-76
2023/11/13 09:48:04;;;;;;;10.93;2.40;;;13.40;77.70;;;;;;4992345;28;20431;-76
2023/11/13 09:50:30;;;;;;;10.98;2.80;;;13.40;77.90;;;;;;4993257;28;20052;-76
2023/11/13 09:52:57;;;;;;;9.35;2.63;;;13.40;77.60;;;;;;4991734;28;20022;-75
2023/11/13 09:55:26;;;;;;;9.43;2.28;;;13.40;77.90;;;;;;4992223;28;20034;-76
2023/11/13 09:57:52;;;;;;;8.50;2.83;;;13.40;78.50;;;;;;4992170;28;20038;-77
2023/11/13 10:00:25;;;;;;;7.88;2.15;;;13.30;79.30;;;;;;4991950;28;20022;-76
2023/11/13 10:02:52;;;;;;;9.68;2.55;;;13.30;78.90;;;;;;4993254;28;20101;-76
2023/11/13 10:05:19;;;;;;;9.27;2.83;;;13.20;79.40;;;;;;5008472;28;20027;-76
2023/11/13 10:07:47;;;;;;;10.63;2.63;;;13.30;79.90;;;;;;4993121;28;20027;-78
2023/11/13 10:10:19;;;;;;;10.88;2.55;;;13.20;79.50;;;;;;4995581;28;20031;-75
2023/11/13 10:12:45;;;;;;;11.52;2.70;;;13.20;80.60;;;;;;4995564;28;20113;-76
2023/11/13 10:15:14;;;;;;;11.65;2.70;;;13.20;79.70;;;;;;4996871;28;20102;-78
2023/11/13 10:17:46;;;;;;;8.75;2.50;;;13.30;80.20;;;;;;4995520;28;20026;-77
2023/11/13 10:20:17;;;;;;;8.63;2.55;;;13.20;80.70;;;;;;4995510;28;20117;-75
2023/11/13 10:23:06;;;;;;;9.80;2.42;;;13.20;80.00;;;;;;4995455;28;20042;-78
2023/11/13 10:25:45;;;;;;;7.00;2.08;;;13.30;80.20;;;;;;4995994;28;20026;-76
2023/11/13 10:28:17;;;;;;;10.20;2.63;;;13.30;80.60;;;;;;4995303;28;20031;-77
2023/11/13 10:30:58;;;;;;;6.50;2.00;;;13.30;80.70;;;;;;4996411;28;20391;-78
2023/11/13 10:33:25;;;;;;;7.63;2.35;;;13.30;81.00;;;;;;4995171;28;20071;-78
2023/11/13 10:35:52;;;;;;;6.60;2.35;;;13.40;80.80;;;;;;4995412;28;20463;-77
2023/11/13 10:38:20;;;;;;;9.50;2.67;;;13.40;81.00;;;;;;4995045;28;20031;-77
2023/11/13 10:41:00;;;;;;;9.25;2.88;;;13.40;81.00;;;;;;4995121;28;20033;-77
2023/11/13 10:43:29;;;;;;;8.55;2.47;;;13.30;81.10;;;;;;4995197;28;20391;-77
2023/11/13 10:45:55;;;;;;;5.68;2.35;;;13.30;81.40;;;;;;4994931;28;20410;-77
2023/11/13 10:48:42;;;;;;;7.82;1.90;;;13.20;81.50;;;;;;4995654;28;20117;-77
2023/11/13 10:51:11;;;;;;;10.35;2.53;;;13.20;81.50;;;;;;4995787;28;20383;-77
2023/11/13 10:53:39;;;;;;;7.88;2.17;;;13.10;82.40;;;;;;4995010;28;20026;-77
2023/11/13 10:56:06;;;;;;;7.97;2.03;;;13.00;82.30;;;;;;4979469;28;20034;-77
2023/11/13 10:58:32;;;;;;;5.82;2.10;;;13.00;83.10;;;;;;4998224;28;20034;-76
2023/11/13 11:01:01;;;;;;;7.25;2.25;;;13.00;83.40;;;;;;4998768;28;20443;-77
2023/11/13 11:03:32;;;;;;;9.95;2.60;;;13.00;84.10;;;;;;4993774;28;20117;-77
2023/11/13 11:06:06;;;;;;;5.40;1.90;;;13.10;83.30;;;;;;4994694;28;20533;-76
2023/11/13 11:08:34;;;;;;;4.30;1.42;;;13.20;83.70;;;;;;4995488;28;20085;-76
2023/11/13 11:11:03;;;;;;;6.05;1.90;;;13.10;83.50;;;;;;4994852;28;20030;-77
2023/11/13 11:13:30;;;;;;;5.40;1.25;;;13.20;83.80;;;;;;4994572;28;20058;-77
2023/11/13 11:16:28;;;;;;;5.43;1.63;;;13.20;83.60;;;;;;4993953;28;20065;-75
2023/11/13 11:19:18;;;;;;;5.68;1.98;;;13.20;83.80;;;;;;4993448;28;20118;-75
2023/11/13 11:21:50;;;;;;;4.88;1.65;;;13.20;83.90;;;;;;4994082;28;20495;-76
2023/11/13 11:24:24;;;;;;;4.00;1.23;;;13.20;83.60;;;;;;4993772;28;20034;-76
2023/11/13 11:26:58;;;;;;;3.80;1.13;;;13.20;83.70;;;;;;4993796;28;20022;-76
2023/11/13 11:29:43;;;;;;;2.13;1.10;;;13.30;82.90;;;;;;4993635;28;20026;-76
2023/11/13 11:32:14;;;;;;;4.13;1.35;;;13.40;82.60;;;;;;4994640;28;20379;-76
2023/11/13 11:34:42;;;;;;;3.55;1.50;;;13.50;82.30;;;;;;4993724;28;20057;-75
2023/11/13 11:37:13;;;;;;;2.65;1.08;;;13.50;81.90;;;;;;4993898;28;20022;-76
2023/11/13 11:39:47;;;;;;;4.18;1.50;;;13.50;82.40;;;;;;4993780;28;20041;-77
2023/11/13 11:42:18;;;;;;;4.13;1.50;;;13.60;81.60;;;;;;4994423;28;20029;-75
2023/11/13 11:44:59;;;;;;;3.30;1.23;;;13.60;82.20;;;;;;4993640;28;20058;-76
2023/11/13 11:47:27;;;;;;;3.72;1.20;;;13.60;81.50;;;;;;4993175;28;20041;-75
2023/11/13 11:49:54;;;;;;;4.55;1.75;;;13.70;80.90;;;;;;4993833;28;20180;-76
2023/11/13 11:52:39;;;;;;;2.38;1.15;;;13.80;80.60;;;;;;4977122;28;20121;-77
2023/11/13 11:55:06;;;;;;;3.28;1.35;;;13.80;80.60;;;;;;4992496;28;20117;-77
2023/11/13 11:57:32;;;;;;;4.82;1.30;;;13.80;80.30;;;;;;4992664;28;20033;-76
2023/11/13 12:00:00;;;;;;;9.02;1.60;;;13.80;80.40;;;;;;4975995;28;20400;-76
2023/11/13 12:02:28;;;;;;;7.13;1.80;;;13.80;80.60;;;;;;4992426;28;20371;-77
2023/11/13 12:04:58;;;;;;;3.63;1.33;;;13.80;80.40;;;;;;4992654;28;20582;-75
2023/11/13 12:07:24;;;;;;;4.00;1.73;;;13.80;80.40;;;;;;4992329;28;20125;-76
2023/11/13 12:09:50;;;;;;;5.97;1.30;;;13.90;80.50;;;;;;4991980;28;20117;-75
2023/11/13 12:12:19;;;;;;;4.38;1.48;;;13.80;80.70;;;;;;4992507;28;20081;-75
2023/11/13 12:14:45;;;;;;;6.18;1.60;;;13.90;81.50;;;;;;4995300;28;20440;-76
2023/11/13 12:17:12;;;;;;;4.70;1.17;;;13.90;81.20;;;;;;4995080;28;20106;-75
2023/11/13 12:19:39;;;;;;;2.35;1.17;;;14.00;80.50;;;;;;4993396;28;20383;-74
2023/11/13 12:22:05;;;;;;;3.45;1.13;;;13.90;80.80;;;;;;4993130;28;20031;-75
2023/11/13 12:24:32;;;;;;;3.35;1.23;;;13.90;80.80;;;;;;4997694;28;20027;-76
2023/11/13 12:26:58;;;;;;;4.90;1.35;;;14.00;81.00;;;;;;4992533;28;20030;-76
2023/11/13 12:29:24;;;;;;;3.70;1.20;;;13.80;81.70;;;;;;4994151;28;20023;-75
2023/11/13 12:31:55;;;;;;;3.10;1.23;;;13.70;82.60;;;;;;4992034;28;20080;-76
2023/11/13 12:34:21;;;;;;;2.60;1.00;;;13.60;83.10;;;;;;4992811;28;20022;-75
2023/11/13 12:36:49;;;;;;;4.40;1.20;;;13.50;83.00;;;;;;4992759;28;20049;-75
2023/11/13 12:39:26;;;;;;;4.07;1.08;;;13.50;82.80;;;;;;4976560;28;20027;-75
2023/11/13 12:41:51;;;;;;;4.75;1.20;;;13.50;83.50;;;;;;4990260;28;20030;-74
2023/11/13 12:44:22;;;;;;;2.63;1.20;;;13.50;83.40;;;;;;4992088;28;20028;-73
2023/11/13 12:46:50;;;;;;;1.77;1.05;;;13.50;82.50;;;;;;5005931;28;20026;-75